createdAt,value
2023-01-07T00:00:07.683Z,90.89
2023-01-07T00:01:07.578Z,90.89
2023-01-07T00:02:07.548Z,90.89
2023-01-07T00:03:07.551Z,90.89
2023-01-07T00:04:07.612Z,90.79
2023-01-07T00:05:07.542Z,90.79
2023-01-07T00:06:07.521Z,90.79
2023-01-07T00:07:07.489Z,90.79
2023-01-07T00:08:07.495Z,90.69
2023-01-07T00:09:07.483Z,90.58
2023-01-07T00:10:07.461Z,90.58
2023-01-07T00:11:07.451Z,90.48
2023-01-07T00:12:07.450Z,90.48
2023-01-07T00:13:07.423Z,90.48
2023-01-07T00:14:07.422Z,90.48
2023-01-07T00:15:07.434Z,90.48
2023-01-07T00:16:07.485Z,90.58
2023-01-07T00:17:07.393Z,90.58
2023-01-07T00:18:07.379Z,90.58
2023-01-07T00:19:07.371Z,90.58
2023-01-07T00:20:07.366Z,90.58
2023-01-07T00:21:07.353Z,90.58
2023-01-07T00:22:07.331Z,90.48
2023-01-07T00:23:07.304Z,90.48
2023-01-07T00:24:07.288Z,90.48
2023-01-07T00:25:07.292Z,90.37
2023-01-07T00:26:07.294Z,90.37
2023-01-07T00:27:07.284Z,90.37
2023-01-07T00:28:07.337Z,90.28
2023-01-07T00:29:07.241Z,90.28
2023-01-07T00:30:07.239Z,90.28
2023-01-07T00:31:07.280Z,90.28
2023-01-07T00:32:07.210Z,90.17
2023-01-07T00:33:07.197Z,90.17
2023-01-07T00:34:07.187Z,90.17
2023-01-07T00:35:07.165Z,90.17
2023-01-07T00:36:07.169Z,90.07
2023-01-07T00:37:07.171Z,90.07
2023-01-07T00:38:07.149Z,90.07
2023-01-07T00:39:07.161Z,90.07
2023-01-07T00:40:07.123Z,90.07
2023-01-07T00:41:07.091Z,90.17
2023-01-07T00:42:07.097Z,90.17
2023-01-07T00:43:07.093Z,90.07
2023-01-07T00:44:07.060Z,90.07
2023-01-07T00:45:07.043Z,90.07
2023-01-07T00:46:07.057Z,90.07
2023-01-07T00:47:07.038Z,90.07
2023-01-07T00:48:07.028Z,90.17
2023-01-07T00:49:07.013Z,90.17
2023-01-07T00:50:07.030Z,90.17
2023-01-07T00:51:06.981Z,90.17
2023-01-07T00:52:06.988Z,90.28
2023-01-07T00:53:06.957Z,90.17
2023-01-07T00:54:06.961Z,90.07
2023-01-07T00:55:06.931Z,90.07
2023-01-07T00:56:06.922Z,90.07
2023-01-07T00:57:06.915Z,90.07
2023-01-07T00:58:06.929Z,90.07
2023-01-07T00:59:06.915Z,90.07
2023-01-07T01:00:06.876Z,90.07
2023-01-07T01:01:07.064Z,90.07
2023-01-07T01:02:07.008Z,90.07
2023-01-07T01:03:06.841Z,90.07
2023-01-07T01:04:06.855Z,90.07
2023-01-07T01:05:06.859Z,90.07
2023-01-07T01:06:06.824Z,89.97
2023-01-07T01:07:06.811Z,89.97
2023-01-07T01:08:06.795Z,89.97
2023-01-07T01:09:06.776Z,89.87
2023-01-07T01:10:06.793Z,89.87
2023-01-07T01:11:06.830Z,89.76
2023-01-07T01:12:06.744Z,89.76
2023-01-07T01:13:06.765Z,89.76
2023-01-07T01:14:06.726Z,89.76
2023-01-07T01:15:06.739Z,89.76
2023-01-07T01:16:06.771Z,89.76
2023-01-07T01:17:06.695Z,89.76
2023-01-07T01:18:06.675Z,89.76
2023-01-07T01:19:06.683Z,89.76
2023-01-07T01:20:06.669Z,89.76
2023-01-07T01:21:06.659Z,89.76
2023-01-07T01:22:06.636Z,89.87
2023-01-07T01:23:06.640Z,89.87
2023-01-07T01:24:06.621Z,89.87
2023-01-07T01:25:06.626Z,89.76
2023-01-07T01:26:06.586Z,89.76
2023-01-07T01:27:06.604Z,89.66
2023-01-07T01:28:06.577Z,89.76
2023-01-07T01:29:06.547Z,89.66
2023-01-07T01:30:06.540Z,89.66
2023-01-07T01:31:06.596Z,89.66
2023-01-07T01:32:06.518Z,89.66
2023-01-07T01:33:06.532Z,89.56
2023-01-07T01:34:06.497Z,89.56
2023-01-07T01:35:06.481Z,89.56
2023-01-07T01:36:06.479Z,89.56
2023-01-07T01:37:06.466Z,89.45
2023-01-07T01:38:06.468Z,89.45
2023-01-07T01:39:06.435Z,89.45
2023-01-07T01:40:06.433Z,89.56
2023-01-07T01:41:06.408Z,89.56
2023-01-07T01:42:06.433Z,89.56
2023-01-07T01:43:06.405Z,89.56
2023-01-07T01:44:06.385Z,89.56
2023-01-07T01:45:06.377Z,89.56
2023-01-07T01:46:06.364Z,89.56
2023-01-07T01:47:06.396Z,89.56
2023-01-07T01:48:06.362Z,89.56
2023-01-07T01:49:06.333Z,89.56
2023-01-07T01:50:06.319Z,89.56
2023-01-07T01:51:06.287Z,89.56
2023-01-07T01:52:06.310Z,89.56
2023-01-07T01:53:06.287Z,89.56
2023-01-07T01:54:06.261Z,89.56
2023-01-07T01:55:06.259Z,89.50
2023-01-07T01:56:06.239Z,89.39
2023-01-07T01:57:06.237Z,89.39
2023-01-07T01:58:06.210Z,89.39
2023-01-07T01:59:06.229Z,89.39
2023-01-07T02:00:06.211Z,89.39
2023-01-07T02:01:06.354Z,89.39
2023-01-07T02:02:06.323Z,89.39
2023-01-07T02:03:06.158Z,89.39
2023-01-07T02:04:06.142Z,89.29
2023-01-07T02:05:06.146Z,89.36
2023-01-07T02:06:06.176Z,89.39
2023-01-07T02:07:06.140Z,89.29
2023-01-07T02:08:06.097Z,89.19
2023-01-07T02:09:06.093Z,89.19
2023-01-07T02:10:06.081Z,89.29
2023-01-07T02:11:06.068Z,89.29
2023-01-07T02:12:06.061Z,89.29
2023-01-07T02:13:06.057Z,89.19
2023-01-07T02:14:06.038Z,89.19
2023-01-07T02:15:06.023Z,89.19
2023-01-07T02:16:06.049Z,89.09
2023-01-07T02:17:06.000Z,89.09
2023-01-07T02:18:05.994Z,89.09
2023-01-07T02:19:05.994Z,89.09
2023-01-07T02:20:05.976Z,89.19
2023-01-07T02:21:05.946Z,89.19
2023-01-07T02:22:05.945Z,89.19
2023-01-07T02:23:05.965Z,89.09
2023-01-07T02:24:05.930Z,88.98
2023-01-07T02:25:05.938Z,88.98
2023-01-07T02:26:05.900Z,89.09
2023-01-07T02:27:05.885Z,89.09
2023-01-07T02:28:05.904Z,88.98
2023-01-07T02:29:05.869Z,88.98
2023-01-07T02:30:05.861Z,88.88
2023-01-07T02:31:05.868Z,88.88
2023-01-07T02:32:05.843Z,88.98
2023-01-07T02:33:05.811Z,88.98
2023-01-07T02:34:05.825Z,88.98
2023-01-07T02:35:05.798Z,88.98
2023-01-07T02:36:05.789Z,88.98
2023-01-07T02:37:05.782Z,88.98
2023-01-07T02:38:05.758Z,88.98
2023-01-07T02:39:05.756Z,88.98
2023-01-07T02:40:05.729Z,88.88
2023-01-07T02:41:05.724Z,88.88
2023-01-07T02:42:05.701Z,88.88
2023-01-07T02:43:05.712Z,88.88
2023-01-07T02:44:05.679Z,88.88
2023-01-07T02:45:05.677Z,88.88
2023-01-07T02:46:05.752Z,88.78
2023-01-07T02:47:05.652Z,88.68
2023-01-07T02:48:05.660Z,88.68
2023-01-07T02:49:05.646Z,88.78
2023-01-07T02:50:05.630Z,88.78
2023-01-07T02:51:05.610Z,88.88
2023-01-07T02:52:05.587Z,88.88
2023-01-07T02:53:05.587Z,88.78
2023-01-07T02:54:05.580Z,88.78
2023-01-07T02:55:05.574Z,88.78
2023-01-07T02:56:05.552Z,88.78
2023-01-07T02:57:05.562Z,88.78
2023-01-07T02:58:05.527Z,88.78
2023-01-07T02:59:05.527Z,88.78
2023-01-07T03:00:05.521Z,88.78
2023-01-07T03:01:05.690Z,88.78
2023-01-07T03:02:05.649Z,88.78
2023-01-07T03:03:05.489Z,88.68
2023-01-07T03:04:05.552Z,88.68
2023-01-07T03:05:05.470Z,88.68
2023-01-07T03:06:05.457Z,88.57
2023-01-07T03:07:05.431Z,88.57
2023-01-07T03:08:05.424Z,88.57
2023-01-07T03:09:05.408Z,88.57
2023-01-07T03:10:05.398Z,88.68
2023-01-07T03:11:05.389Z,88.57
2023-01-07T03:12:05.381Z,88.57
2023-01-07T03:13:05.369Z,88.68
2023-01-07T03:14:05.365Z,88.57
2023-01-07T03:15:05.352Z,88.57
2023-01-07T03:16:05.432Z,88.68
2023-01-07T03:17:05.310Z,88.57
2023-01-07T03:18:05.303Z,88.57
2023-01-07T03:19:05.293Z,88.57
2023-01-07T03:20:05.286Z,88.57
2023-01-07T03:21:05.288Z,88.57
2023-01-07T03:22:05.279Z,88.68
2023-01-07T03:23:05.255Z,88.68
2023-01-07T03:24:05.236Z,88.78
2023-01-07T03:25:05.229Z,88.68
2023-01-07T03:26:05.227Z,88.68
2023-01-07T03:27:05.221Z,88.68
2023-01-07T03:28:10.731Z,88.68
2023-01-07T03:29:05.191Z,88.68
2023-01-07T03:30:05.180Z,88.68
2023-01-07T03:31:05.167Z,88.68
2023-01-07T03:32:05.235Z,88.68
2023-01-07T03:33:05.146Z,88.68
2023-01-07T03:34:05.152Z,88.68
2023-01-07T03:35:05.115Z,88.78
2023-01-07T03:36:05.111Z,88.78
2023-01-07T03:37:05.101Z,88.68
2023-01-07T03:38:05.099Z,88.68
2023-01-07T03:39:05.068Z,88.68
2023-01-07T03:40:05.062Z,88.68
2023-01-07T03:41:05.047Z,88.68
2023-01-07T03:42:05.047Z,88.68
2023-01-07T03:43:05.036Z,88.68
2023-01-07T03:44:05.035Z,88.68
2023-01-07T03:45:05.010Z,88.68
2023-01-07T03:46:05.037Z,88.68
2023-01-07T03:47:05.007Z,88.68
2023-01-07T03:48:04.972Z,88.68
2023-01-07T03:49:04.965Z,88.57
2023-01-07T03:50:04.971Z,88.57
2023-01-07T03:51:04.937Z,88.57
2023-01-07T03:52:04.984Z,88.62
2023-01-07T03:53:04.941Z,88.72
2023-01-07T03:54:04.917Z,88.72
2023-01-07T03:55:04.911Z,88.72
2023-01-07T03:56:04.902Z,88.72
2023-01-07T03:57:04.888Z,88.72
2023-01-07T03:58:04.879Z,88.82
2023-01-07T03:59:04.862Z,88.82
2023-01-07T04:00:04.866Z,88.92
2023-01-07T04:01:04.961Z,88.92
2023-01-07T04:02:05.006Z,89.03
2023-01-07T04:03:04.814Z,89.03
2023-01-07T04:04:04.894Z,89.17
2023-01-07T04:05:04.793Z,89.17
2023-01-07T04:06:04.779Z,89.17
2023-01-07T04:07:04.786Z,89.17
2023-01-07T04:08:04.761Z,89.27
2023-01-07T04:09:04.774Z,89.27
2023-01-07T04:10:04.749Z,89.27
2023-01-07T04:11:04.751Z,89.27
2023-01-07T04:12:04.755Z,89.27
2023-01-07T04:13:04.715Z,89.27
2023-01-07T04:14:04.715Z,89.27
2023-01-07T04:15:04.760Z,89.27
2023-01-07T04:16:04.682Z,89.27
2023-01-07T04:17:04.670Z,89.27
2023-01-07T04:18:04.664Z,89.37
2023-01-07T04:19:04.658Z,89.37
2023-01-07T04:20:04.661Z,89.37
2023-01-07T04:21:04.627Z,89.48
2023-01-07T04:22:04.612Z,89.48
2023-01-07T04:23:04.604Z,89.48
2023-01-07T04:24:04.598Z,89.48
2023-01-07T04:25:04.604Z,89.48
2023-01-07T04:26:04.598Z,89.37
2023-01-07T04:27:04.550Z,89.37
2023-01-07T04:28:04.553Z,89.37
2023-01-07T04:29:04.536Z,89.27
2023-01-07T04:30:04.516Z,89.27
2023-01-07T04:31:04.609Z,89.31
2023-01-07T04:32:04.503Z,89.31
2023-01-07T04:33:04.509Z,89.31
2023-01-07T04:34:04.518Z,89.31
2023-01-07T04:35:04.479Z,89.31
2023-01-07T04:36:04.469Z,89.31
2023-01-07T04:37:04.464Z,89.21
2023-01-07T04:38:04.445Z,89.21
2023-01-07T04:39:04.434Z,89.31
2023-01-07T04:40:04.420Z,89.31
2023-01-07T04:41:04.406Z,89.31
2023-01-07T04:42:04.393Z,89.31
2023-01-07T04:43:04.382Z,89.31
2023-01-07T04:44:04.367Z,89.31
2023-01-07T04:45:04.356Z,89.31
2023-01-07T04:46:04.462Z,89.42
2023-01-07T04:47:04.344Z,89.42
2023-01-07T04:48:04.346Z,89.42
2023-01-07T04:49:04.322Z,89.42
2023-01-07T04:50:04.313Z,89.31
2023-01-07T04:51:04.298Z,89.31
2023-01-07T04:52:04.289Z,89.31
2023-01-07T04:53:04.277Z,89.21
2023-01-07T04:54:04.282Z,89.21
2023-01-07T04:55:04.265Z,89.11
2023-01-07T04:56:04.248Z,89.11
2023-01-07T04:57:04.238Z,89.11
2023-01-07T04:58:04.220Z,89.11
2023-01-07T04:59:04.299Z,89.11
2023-01-07T05:00:04.211Z,89.11
2023-01-07T05:01:04.382Z,89.01
2023-01-07T05:02:04.373Z,89.01
2023-01-07T05:03:04.178Z,89.01
2023-01-07T05:04:04.219Z,89.01
2023-01-07T05:05:04.149Z,89.11
2023-01-07T05:06:04.146Z,89.11
2023-01-07T05:07:04.133Z,89.11
2023-01-07T05:08:04.104Z,89.01
2023-01-07T05:09:04.107Z,88.90
2023-01-07T05:10:04.091Z,89.01
2023-01-07T05:11:04.082Z,89.01
2023-01-07T05:12:04.089Z,89.01
2023-01-07T05:13:06.060Z,89.01
2023-01-07T05:14:04.060Z,89.01
2023-01-07T05:15:04.048Z,88.90
2023-01-07T05:16:04.050Z,88.90
2023-01-07T05:17:04.113Z,88.80
2023-01-07T05:18:04.022Z,88.80
2023-01-07T05:19:03.995Z,88.59
2023-01-07T05:20:03.995Z,88.59
2023-01-07T05:21:03.977Z,88.59
2023-01-07T05:22:03.983Z,88.70
2023-01-07T05:23:03.953Z,88.70
2023-01-07T05:24:03.964Z,88.70
2023-01-07T05:25:03.955Z,88.70
2023-01-07T05:26:03.921Z,88.70
2023-01-07T05:27:03.942Z,88.70
2023-01-07T05:28:03.913Z,88.70
2023-01-07T05:29:03.898Z,88.59
2023-01-07T05:30:03.883Z,88.59
2023-01-07T05:31:03.957Z,88.59
2023-01-07T05:32:03.870Z,88.59
2023-01-07T05:33:03.875Z,88.59
2023-01-07T05:34:03.841Z,88.39
2023-01-07T05:35:03.831Z,88.29
2023-01-07T05:36:03.836Z,88.29
2023-01-07T05:37:03.903Z,88.04
2023-01-07T05:38:03.920Z,88.08
2023-01-07T05:39:03.984Z,87.94
2023-01-07T05:40:03.959Z,87.94
2023-01-07T05:41:03.785Z,87.84
2023-01-07T05:42:04.105Z,87.84
2023-01-07T05:43:03.772Z,87.84
2023-01-07T05:44:03.756Z,87.63
2023-01-07T05:45:03.739Z,87.63
2023-01-07T05:46:03.776Z,87.73
2023-01-07T05:47:03.714Z,87.63
2023-01-07T05:48:03.703Z,87.53
2023-01-07T05:49:03.680Z,87.53
2023-01-07T05:50:03.676Z,87.43
2023-01-07T05:51:03.695Z,87.43
2023-01-07T05:52:03.657Z,87.43
2023-01-07T05:53:03.653Z,87.43
2023-01-07T05:54:03.640Z,87.32
2023-01-07T05:55:03.641Z,87.22
2023-01-07T05:56:03.663Z,87.22
2023-01-07T05:57:03.610Z,87.22
2023-01-07T05:58:03.621Z,87.22
2023-01-07T05:59:03.784Z,87.22
2023-01-07T06:00:03.569Z,87.22
2023-01-07T06:01:03.591Z,87.22
2023-01-07T06:02:03.547Z,87.22
2023-01-07T06:03:03.617Z,87.12
2023-01-07T06:04:03.772Z,87.22
2023-01-07T06:05:03.792Z,87.22
2023-01-07T06:06:03.500Z,87.22
2023-01-07T06:07:03.517Z,87.18
2023-01-07T06:08:03.493Z,87.12
2023-01-07T06:09:03.487Z,87.08
2023-01-07T06:10:03.483Z,86.98
2023-01-07T06:11:03.451Z,87.08
2023-01-07T06:12:03.455Z,86.98
2023-01-07T06:13:03.442Z,86.87
2023-01-07T06:14:03.419Z,86.87
2023-01-07T06:15:03.452Z,86.87
2023-01-07T06:16:03.459Z,86.87
2023-01-07T06:17:03.406Z,86.87
2023-01-07T06:18:03.390Z,86.77
2023-01-07T06:19:03.378Z,86.66
2023-01-07T06:20:03.372Z,86.66
2023-01-07T06:21:03.363Z,86.66
2023-01-07T06:22:03.343Z,86.77
2023-01-07T06:23:03.330Z,86.87
2023-01-07T06:24:03.333Z,86.77
2023-01-07T06:25:03.308Z,86.77
2023-01-07T06:26:03.304Z,86.77
2023-01-07T06:27:03.296Z,86.77
2023-01-07T06:28:03.284Z,86.77
2023-01-07T06:29:03.269Z,86.87
2023-01-07T06:30:03.278Z,86.87
2023-01-07T06:31:03.280Z,86.87
2023-01-07T06:32:03.255Z,86.77
2023-01-07T06:33:03.237Z,86.77
2023-01-07T06:34:03.227Z,86.66
2023-01-07T06:35:03.212Z,86.66
2023-01-07T06:36:03.192Z,86.66
2023-01-07T06:37:03.204Z,86.66
2023-01-07T06:38:03.176Z,86.66
2023-01-07T06:39:03.189Z,86.57
2023-01-07T06:40:03.200Z,86.57
2023-01-07T06:41:03.157Z,86.66
2023-01-07T06:42:03.132Z,86.60
2023-01-07T06:43:03.131Z,86.60
2023-01-07T06:44:03.110Z,86.71
2023-01-07T06:45:03.107Z,86.77
2023-01-07T06:46:03.144Z,86.71
2023-01-07T06:47:03.098Z,86.66
2023-01-07T06:48:03.082Z,86.71
2023-01-07T06:49:03.065Z,86.57
2023-01-07T06:50:03.053Z,86.57
2023-01-07T06:51:03.059Z,86.77
2023-01-07T06:52:03.047Z,86.77
2023-01-07T06:53:03.022Z,86.66
2023-01-07T06:54:03.019Z,86.57
2023-01-07T06:55:02.992Z,86.25
2023-01-07T06:56:02.983Z,85.95
2023-01-07T06:57:03.006Z,85.95
2023-01-07T06:58:02.966Z,86.05
2023-01-07T06:59:02.960Z,85.95
2023-01-07T07:00:02.948Z,86.05
2023-01-07T07:01:02.968Z,86.05
2023-01-07T07:02:02.992Z,86.15
2023-01-07T07:03:03.034Z,86.05
2023-01-07T07:04:02.915Z,86.15
2023-01-07T07:05:02.901Z,85.95
2023-01-07T07:06:02.876Z,85.95
2023-01-07T07:07:02.872Z,85.95
2023-01-07T07:08:02.855Z,86.05
2023-01-07T07:09:02.882Z,86.05
2023-01-07T07:10:02.832Z,85.85
2023-01-07T07:11:02.869Z,85.74
2023-01-07T07:12:02.816Z,85.74
2023-01-07T07:13:02.838Z,85.64
2023-01-07T07:14:02.803Z,85.64
2023-01-07T07:15:02.805Z,85.64
2023-01-07T07:16:02.853Z,85.54
2023-01-07T07:17:02.786Z,85.54
2023-01-07T07:18:02.746Z,85.74
2023-01-07T07:19:02.746Z,85.54
2023-01-07T07:20:02.761Z,85.54
2023-01-07T07:21:02.741Z,85.64
2023-01-07T07:22:04.607Z,85.44
2023-01-07T07:23:02.710Z,85.13
2023-01-07T07:24:02.693Z,84.92
2023-01-07T07:25:02.677Z,84.92
2023-01-07T07:26:02.681Z,84.82
2023-01-07T07:27:02.678Z,84.72
2023-01-07T07:28:02.646Z,84.72
2023-01-07T07:29:02.653Z,84.72
2023-01-07T07:30:02.633Z,84.61
2023-01-07T07:31:02.717Z,84.72
2023-01-07T07:32:02.601Z,84.72
2023-01-07T07:33:02.620Z,84.72
2023-01-07T07:34:02.596Z,84.61
2023-01-07T07:35:02.571Z,84.61
2023-01-07T07:36:02.571Z,84.41
2023-01-07T07:37:02.551Z,84.31
2023-01-07T07:38:02.548Z,84.41
2023-01-07T07:39:02.535Z,84.20
2023-01-07T07:40:02.527Z,84.10
2023-01-07T07:41:02.533Z,84.00
2023-01-07T07:42:02.493Z,84.10
2023-01-07T07:43:10.834Z,84.00
2023-01-07T07:44:02.527Z,83.90
2023-01-07T07:45:02.465Z,83.80
2023-01-07T07:46:02.459Z,83.69
2023-01-07T07:47:02.445Z,83.49
2023-01-07T07:48:02.440Z,83.28
2023-01-07T07:49:02.466Z,83.39
2023-01-07T07:50:02.433Z,83.49
2023-01-07T07:51:02.401Z,83.39
2023-01-07T07:52:02.393Z,82.97
2023-01-07T07:53:02.392Z,83.18
2023-01-07T07:54:02.416Z,83.59
2023-01-07T07:55:20.468Z,83.59
2023-01-07T07:56:02.355Z,83.49
2023-01-07T07:57:02.336Z,83.39
2023-01-07T07:58:02.340Z,83.18
2023-01-07T07:59:02.316Z,83.18
2023-01-07T08:00:02.332Z,83.07
2023-01-07T08:01:02.352Z,83.18
2023-01-07T08:02:02.326Z,83.28
2023-01-07T08:03:02.367Z,82.97
2023-01-07T08:04:02.298Z,83.18
2023-01-07T08:05:02.256Z,82.97
2023-01-07T08:06:02.251Z,82.87
2023-01-07T08:07:02.238Z,82.63
2023-01-07T08:08:02.226Z,82.77
2023-01-07T08:09:02.216Z,82.67
2023-01-07T08:10:02.212Z,82.46
2023-01-07T08:11:02.196Z,82.46
2023-01-07T08:12:02.176Z,82.67
2023-01-07T08:13:02.218Z,82.56
2023-01-07T08:14:02.158Z,82.53
2023-01-07T08:15:02.167Z,82.83
2023-01-07T08:16:02.130Z,82.83
2023-01-07T08:17:02.127Z,82.73
2023-01-07T08:18:02.146Z,82.67
2023-01-07T08:19:02.111Z,82.53
2023-01-07T08:20:02.114Z,82.56
2023-01-07T08:21:02.097Z,82.56
2023-01-07T08:22:02.105Z,82.46
2023-01-07T08:23:02.091Z,82.53
2023-01-07T08:24:02.552Z,82.53
2023-01-07T08:25:02.426Z,82.53
2023-01-07T08:26:02.045Z,82.42
2023-01-07T08:27:02.022Z,82.32
2023-01-07T08:28:02.023Z,82.32
2023-01-07T08:29:02.003Z,82.32
2023-01-07T08:30:02.027Z,82.32
2023-01-07T08:31:02.026Z,82.32
2023-01-07T08:32:01.979Z,82.42
2023-01-07T08:33:01.960Z,82.32
2023-01-07T08:34:01.954Z,82.12
2023-01-07T08:35:01.967Z,82.01
2023-01-07T08:36:03.617Z,82.01
2023-01-07T08:37:01.926Z,82.12
2023-01-07T08:38:01.929Z,82.53
2023-01-07T08:39:01.903Z,82.32
2023-01-07T08:40:03.992Z,82.22
2023-01-07T08:41:01.890Z,82.12
2023-01-07T08:42:01.887Z,82.12
2023-01-07T08:43:01.967Z,82.12
2023-01-07T08:44:01.851Z,82.12
2023-01-07T08:45:01.886Z,82.32
2023-01-07T08:46:01.860Z,82.42
2023-01-07T08:47:01.856Z,82.12
2023-01-07T08:48:01.835Z,82.22
2023-01-07T08:49:01.846Z,82.12
2023-01-07T08:50:01.834Z,82.32
2023-01-07T08:51:01.779Z,82.32
2023-01-07T08:52:01.771Z,82.32
2023-01-07T08:53:01.798Z,82.32
2023-01-07T08:54:01.754Z,82.22
2023-01-07T08:55:01.735Z,82.12
2023-01-07T08:56:01.735Z,82.22
2023-01-07T08:57:01.732Z,82.12
2023-01-07T08:58:01.703Z,82.12
2023-01-07T08:59:01.718Z,82.22
2023-01-07T09:00:01.679Z,82.12
2023-01-07T09:01:01.809Z,82.12
2023-01-07T09:02:01.779Z,82.22
2023-01-07T09:03:01.653Z,82.32
2023-01-07T09:04:01.654Z,82.32
2023-01-07T09:05:01.626Z,81.91
2023-01-07T09:06:01.624Z,81.81
2023-01-07T09:07:01.602Z,81.91
2023-01-07T09:08:01.601Z,81.91
2023-01-07T09:09:01.600Z,82.01
2023-01-07T09:10:01.685Z,81.91
2023-01-07T09:11:01.566Z,81.71
2023-01-07T09:12:01.556Z,81.60
2023-01-07T09:13:01.537Z,81.29
2023-01-07T09:14:01.533Z,81.60
2023-01-07T09:15:01.526Z,81.50
2023-01-07T09:16:01.587Z,81.40
2023-01-07T09:17:01.496Z,81.29
2023-01-07T09:18:01.500Z,81.67
2023-01-07T09:19:01.491Z,81.71
2023-01-07T09:20:01.549Z,81.60
2023-01-07T09:21:01.464Z,81.40
2023-01-07T09:22:01.465Z,81.71
2023-01-07T09:23:01.434Z,81.91
2023-01-07T09:24:01.445Z,81.71
2023-01-07T09:25:01.410Z,81.60
2023-01-07T09:26:01.401Z,81.71
2023-01-07T09:27:01.406Z,81.71
2023-01-07T09:28:01.380Z,81.81
2023-01-07T09:29:01.365Z,81.60
2023-01-07T09:30:01.402Z,81.60
2023-01-07T09:31:01.339Z,82.22
2023-01-07T09:32:01.382Z,82.01
2023-01-07T09:33:01.314Z,81.91
2023-01-07T09:34:01.325Z,82.01
2023-01-07T09:35:01.300Z,82.01
2023-01-07T09:36:01.287Z,81.81
2023-01-07T09:37:01.301Z,81.71
2023-01-07T09:38:01.312Z,81.91
2023-01-07T09:39:01.252Z,82.01
2023-01-07T09:40:01.309Z,82.12
2023-01-07T09:41:01.258Z,82.22
2023-01-07T09:42:01.304Z,82.12
2023-01-07T09:43:01.241Z,82.08
2023-01-07T09:44:01.908Z,82.12
2023-01-07T09:45:01.236Z,82.01
2023-01-07T09:46:01.254Z,81.91
2023-01-07T09:47:01.167Z,81.81
2023-01-07T09:48:01.173Z,81.57
2023-01-07T09:49:01.196Z,81.77
2023-01-07T09:50:01.135Z,81.87
2023-01-07T09:51:01.144Z,81.98
2023-01-07T09:52:01.125Z,82.08
2023-01-07T09:53:01.100Z,81.87
2023-01-07T09:54:01.144Z,81.77
2023-01-07T09:55:01.091Z,81.77
2023-01-07T09:56:10.937Z,81.46
2023-01-07T09:57:01.877Z,81.57
2023-01-07T09:58:01.536Z,81.67
2023-01-07T09:59:01.115Z,81.67
2023-01-07T10:00:01.038Z,81.63
2023-01-07T10:01:01.065Z,81.63
2023-01-07T10:02:01.005Z,81.22
2023-01-07T10:03:01.044Z,81.01
2023-01-07T10:04:01.073Z,81.01
2023-01-07T10:05:00.988Z,81.32
2023-01-07T10:06:00.971Z,81.01
2023-01-07T10:07:00.948Z,80.91
2023-01-07T10:08:31.693Z,80.71
2023-01-07T10:09:00.948Z,80.71
2023-01-07T10:10:00.912Z,80.71
2023-01-07T10:11:00.905Z,80.46
2023-01-07T10:12:00.888Z,80.57
2023-01-07T10:13:00.893Z,80.67
2023-01-07T10:14:00.885Z,80.57
2023-01-07T10:15:00.862Z,80.57
2023-01-07T10:16:01.058Z,80.46
2023-01-07T10:17:00.830Z,80.57
2023-01-07T10:18:00.829Z,80.26
2023-01-07T10:19:00.833Z,80.36
2023-01-07T10:20:00.801Z,80.67
2023-01-07T10:21:00.794Z,80.36
2023-01-07T10:22:00.774Z,79.96
2023-01-07T10:23:00.775Z,80.26
2023-01-07T10:24:00.756Z,80.43
2023-01-07T10:25:00.765Z,80.36
2023-01-07T10:26:00.732Z,80.05
2023-01-07T10:27:00.722Z,79.82
2023-01-07T10:28:00.751Z,79.82
2023-01-07T10:29:00.719Z,79.61
2023-01-07T10:30:00.720Z,79.82
2023-01-07T10:31:00.680Z,79.91
2023-01-07T10:32:00.768Z,79.91
2023-01-07T10:33:00.942Z,78.79
2023-01-07T10:34:00.644Z,78.79
2023-01-07T10:35:00.643Z,78.89
2023-01-07T10:36:00.621Z,78.89
2023-01-07T10:37:00.611Z,79.10
2023-01-07T10:38:00.591Z,79.10
2023-01-07T10:39:00.578Z,79.30
2023-01-07T10:40:00.584Z,79.16
2023-01-07T10:41:00.553Z,79.27
2023-01-07T10:42:00.566Z,79.06
2023-01-07T10:43:00.533Z,78.04
2023-01-07T10:44:00.517Z,77.94
2023-01-07T10:45:00.514Z,78.04
2023-01-07T10:46:00.626Z,77.53
2023-01-07T10:47:00.488Z,77.87
2023-01-07T10:48:00.493Z,77.87
2023-01-07T10:49:00.459Z,77.76
2023-01-07T10:50:00.446Z,77.97
2023-01-07T10:51:00.451Z,77.67
2023-01-07T10:52:00.429Z,77.15
2023-01-07T10:53:00.423Z,77.12
2023-01-07T10:54:00.409Z,77.32
2023-01-07T10:55:00.410Z,77.32
2023-01-07T10:56:00.405Z,77.53
2023-01-07T10:57:00.377Z,77.42
2023-01-07T10:58:00.369Z,77.22
2023-01-07T10:59:00.353Z,77.29
2023-01-07T11:00:00.339Z,76.98
2023-01-07T11:01:00.481Z,76.67
2023-01-07T11:02:00.650Z,76.47
2023-01-07T11:03:00.431Z,76.98
2023-01-07T11:04:00.290Z,76.78
2023-01-07T11:05:00.293Z,76.37
2023-01-07T11:06:00.269Z,75.85
2023-01-07T11:07:00.268Z,76.26
2023-01-07T11:08:00.260Z,76.37
2023-01-07T11:09:00.232Z,76.26
2023-01-07T11:10:00.231Z,76.09
2023-01-07T11:11:00.207Z,76.40
2023-01-07T11:12:00.217Z,76.50
2023-01-07T11:13:00.206Z,77.01
2023-01-07T11:14:00.172Z,76.61
2023-01-07T11:15:00.163Z,76.50
2023-01-07T11:16:00.150Z,76.91
2023-01-07T11:17:00.151Z,76.81
2023-01-07T11:18:00.209Z,76.30
2023-01-07T11:19:00.131Z,76.09
2023-01-07T11:20:00.164Z,76.50
2023-01-07T11:21:00.143Z,76.40
2023-01-07T11:22:00.088Z,76.23
2023-01-07T11:23:00.100Z,76.20
2023-01-07T11:24:00.104Z,76.20
2023-01-07T11:25:00.083Z,76.50
2023-01-07T11:26:00.052Z,76.20
2023-01-07T11:27:00.124Z,76.30
2023-01-07T11:28:00.102Z,76.40
2023-01-07T11:29:00.039Z,76.20
2023-01-07T11:30:00.178Z,76.20
2023-01-07T11:31:00.005Z,75.89
2023-01-07T11:32:00.135Z,75.89
2023-01-07T11:32:59.964Z,75.99
2023-01-07T11:34:02.840Z,76.34
2023-01-07T11:34:59.951Z,76.34
2023-01-07T11:35:59.939Z,76.20
2023-01-07T11:36:59.941Z,76.61
2023-01-07T11:37:59.899Z,76.54
2023-01-07T11:38:59.903Z,76.23
2023-01-07T11:39:59.897Z,76.43
2023-01-07T11:41:00.770Z,76.40
2023-01-07T11:41:59.887Z,76.54
2023-01-07T11:42:59.850Z,76.23
2023-01-07T11:43:59.858Z,76.50
2023-01-07T11:45:00.094Z,76.91
2023-01-07T11:46:19.149Z,76.75
2023-01-07T11:46:59.868Z,76.75
2023-01-07T11:47:59.799Z,76.23
2023-01-07T11:48:59.860Z,76.23
2023-01-07T11:49:59.785Z,76.23
2023-01-07T11:50:59.804Z,76.54
2023-01-07T11:51:59.753Z,76.54
2023-01-07T11:52:59.738Z,76.43
2023-01-07T11:53:59.744Z,76.23
2023-01-07T11:54:59.704Z,76.43
2023-01-07T11:55:59.726Z,76.54
2023-01-07T11:56:59.693Z,76.43
2023-01-07T11:58:28.326Z,76.03
2023-01-07T11:58:59.671Z,75.93
2023-01-07T11:59:59.669Z,75.93
2023-01-07T12:00:59.690Z,76.03
2023-01-07T12:01:59.795Z,76.34
2023-01-07T12:02:59.619Z,76.23
2023-01-07T12:03:59.608Z,76.34
2023-01-07T12:04:59.596Z,76.23
2023-01-07T12:05:59.587Z,76.54
2023-01-07T12:06:59.595Z,76.40
2023-01-07T12:07:59.581Z,76.20
2023-01-07T12:08:59.562Z,75.68
2023-01-07T12:09:59.537Z,75.48
2023-01-07T12:10:59.529Z,75.68
2023-01-07T12:11:59.511Z,75.59
2023-01-07T12:12:59.547Z,75.48
2023-01-07T12:13:59.492Z,75.59
2023-01-07T12:14:59.478Z,75.79
2023-01-07T12:15:59.485Z,75.27
2023-01-07T12:16:59.451Z,75.07
2023-01-07T12:17:59.449Z,75.07
2023-01-07T12:18:59.463Z,74.97
2023-01-07T12:19:59.440Z,75.17
2023-01-07T12:20:59.410Z,75.17
2023-01-07T12:21:59.401Z,74.76
2023-01-07T12:22:59.405Z,75.38
2023-01-07T12:23:59.393Z,74.97
2023-01-07T12:24:59.360Z,75.38
2023-01-07T12:25:59.404Z,75.07
2023-01-07T12:26:59.357Z,74.87
2023-01-07T12:27:59.336Z,74.76
2023-01-07T12:28:59.318Z,74.76
2023-01-07T12:29:59.321Z,74.87
2023-01-07T12:30:59.377Z,74.97
2023-01-07T12:31:59.311Z,75.27
2023-01-07T12:32:59.414Z,75.17
2023-01-07T12:33:59.250Z,75.38
2023-01-07T12:34:59.260Z,74.87
2023-01-07T12:35:59.245Z,74.76
2023-01-07T12:36:59.231Z,75.17
2023-01-07T12:37:59.225Z,75.07
2023-01-07T12:38:59.217Z,74.87
2023-01-07T12:39:59.220Z,75.27
2023-01-07T12:40:59.177Z,74.97
2023-01-07T12:41:59.227Z,75.17
2023-01-07T12:42:59.161Z,75.38
2023-01-07T12:43:59.142Z,75.07
2023-01-07T12:44:59.147Z,75.27
2023-01-07T12:45:59.222Z,75.07
2023-01-07T12:47:31.088Z,75.38
2023-01-07T12:47:59.133Z,75.38
2023-01-07T12:48:59.083Z,75.38
2023-01-07T12:49:59.079Z,75.34
2023-01-07T12:50:59.081Z,74.87
2023-01-07T12:51:59.064Z,74.73